createdAt,value
2018-12-21T00:00:39.935Z,6.90
2018-12-21T00:03:08.293Z,6.90
2018-12-21T00:05:36.666Z,6.90
2018-12-21T00:08:05.116Z,7.00
2018-12-21T00:10:33.491Z,7.00
2018-12-21T00:13:01.851Z,7.00
2018-12-21T00:15:30.323Z,7.00
2018-12-21T00:17:58.679Z,7.00
2018-12-21T00:20:27.043Z,7.00
2018-12-21T00:22:55.408Z,7.00
2018-12-21T00:25:23.764Z,7.00
2018-12-21T00:27:52.094Z,7.00
2018-12-21T00:30:22.704Z,7.00
2018-12-21T00:32:56.808Z,7.00
2018-12-21T00:35:30.623Z,7.00
2018-12-21T00:38:05.631Z,7.00
2018-12-21T00:40:39.770Z,7.00
2018-12-21T00:43:43.989Z,7.10
2018-12-21T00:46:16.555Z,7.00
2018-12-21T00:48:45.122Z,7.00
2018-12-21T00:51:13.486Z,7.10
2018-12-21T00:53:41.857Z,7.10
2018-12-21T00:56:10.192Z,7.10
2018-12-21T00:58:38.539Z,7.10
2018-12-21T01:01:07.201Z,7.10
2018-12-21T01:03:35.640Z,7.10
2018-12-21T01:06:03.988Z,7.10
2018-12-21T01:08:32.357Z,7.00
2018-12-21T01:11:00.825Z,7.00
2018-12-21T01:13:29.373Z,7.00
2018-12-21T01:15:57.727Z,7.00
2018-12-21T01:18:26.189Z,7.00
2018-12-21T01:20:54.547Z,7.00
2018-12-21T01:23:22.875Z,7.00
2018-12-21T01:25:53.057Z,7.00
2018-12-21T01:28:21.699Z,6.90
2018-12-21T01:30:50.081Z,6.90
2018-12-21T01:33:18.431Z,6.90
2018-12-21T01:35:46.948Z,6.90
2018-12-21T01:38:15.307Z,6.90
2018-12-21T01:40:43.627Z,6.90
2018-12-21T01:43:12.015Z,7.00
2018-12-21T01:45:40.370Z,7.00
2018-12-21T01:48:08.711Z,7.00
2018-12-21T01:50:37.068Z,7.00
2018-12-21T01:53:05.441Z,7.00
2018-12-21T01:55:33.771Z,7.00
2018-12-21T01:58:02.158Z,7.00
2018-12-21T02:00:30.657Z,7.00
2018-12-21T02:02:59.154Z,7.00
2018-12-21T02:05:27.487Z,7.00
2018-12-21T02:07:55.835Z,7.00
2018-12-21T02:10:24.197Z,7.00
2018-12-21T02:12:52.566Z,7.00
2018-12-21T02:15:20.943Z,7.00
2018-12-21T02:17:49.257Z,7.00
2018-12-21T02:20:17.723Z,6.90
2018-12-21T02:22:46.103Z,6.90
2018-12-21T02:25:14.570Z,6.90
2018-12-21T02:27:42.942Z,6.90
2018-12-21T02:30:11.526Z,6.90
2018-12-21T02:32:39.892Z,6.90
2018-12-21T02:35:08.350Z,6.80
2018-12-21T02:37:36.724Z,6.80
2018-12-21T02:40:05.603Z,6.80
2018-12-21T02:42:33.978Z,6.80
2018-12-21T02:45:02.344Z,6.80
2018-12-21T02:47:30.789Z,6.90
2018-12-21T02:49:59.147Z,6.80
2018-12-21T02:52:27.880Z,6.80
2018-12-21T02:54:56.216Z,6.80
2018-12-21T02:57:24.617Z,6.80
2018-12-21T02:59:53.024Z,6.80
2018-12-21T03:02:21.388Z,6.80
2018-12-21T03:04:49.871Z,6.80
2018-12-21T03:07:18.275Z,6.80
2018-12-21T03:09:46.759Z,6.80
2018-12-21T03:12:15.150Z,6.80
2018-12-21T03:14:43.511Z,6.80
2018-12-21T03:17:11.861Z,6.80
2018-12-21T03:19:40.190Z,6.80
2018-12-21T03:22:14.602Z,6.70
2018-12-21T03:24:38.995Z,6.70
2018-12-21T03:27:07.299Z,6.70
2018-12-21T03:29:35.683Z,6.60
2018-12-21T03:32:04.144Z,6.60
2018-12-21T03:34:32.508Z,6.60
2018-12-21T03:37:00.898Z,6.60
2018-12-21T03:39:29.247Z,6.60
2018-12-21T03:41:57.602Z,6.60
2018-12-21T03:44:25.919Z,6.60
2018-12-21T03:46:54.303Z,6.60
2018-12-21T03:49:22.643Z,6.60
2018-12-21T03:51:51.011Z,6.50
2018-12-21T03:54:19.387Z,6.50
2018-12-21T03:56:47.732Z,6.50
2018-12-21T03:59:16.055Z,6.50
2018-12-21T04:01:44.546Z,6.50
2018-12-21T04:04:12.981Z,6.50
2018-12-21T04:06:41.323Z,6.50
2018-12-21T04:09:09.666Z,6.50
2018-12-21T04:11:38.016Z,6.40
2018-12-21T04:14:06.372Z,6.40
2018-12-21T04:16:34.708Z,6.40
2018-12-21T04:19:03.069Z,6.40
2018-12-21T04:21:31.398Z,6.40
2018-12-21T04:23:59.760Z,6.40
2018-12-21T04:26:28.122Z,6.40
2018-12-21T04:28:56.570Z,6.40
2018-12-21T04:31:24.896Z,6.40
2018-12-21T04:33:53.288Z,6.40
2018-12-21T04:36:21.627Z,6.50
2018-12-21T04:38:50.028Z,6.50
2018-12-21T04:41:18.365Z,6.50
2018-12-21T04:43:46.920Z,6.50
2018-12-21T04:46:15.293Z,6.50
2018-12-21T04:48:43.695Z,6.50
2018-12-21T04:51:12.040Z,6.50
2018-12-21T04:53:40.511Z,6.50
2018-12-21T04:56:08.858Z,6.50
2018-12-21T04:58:37.199Z,6.50
2018-12-21T05:01:05.540Z,6.50
2018-12-21T05:03:33.898Z,6.50
2018-12-21T05:06:02.238Z,6.50
2018-12-21T05:08:30.715Z,6.50
2018-12-21T05:10:59.070Z,6.50
2018-12-21T05:13:27.440Z,6.50
2018-12-21T05:15:55.885Z,6.60
2018-12-21T05:18:24.232Z,6.60
2018-12-21T05:20:52.580Z,6.60
2018-12-21T05:23:20.911Z,6.60
2018-12-21T05:25:49.359Z,6.60
2018-12-21T05:28:17.718Z,6.60
2018-12-21T05:30:46.084Z,6.60
2018-12-21T05:33:14.442Z,6.60
2018-12-21T05:35:42.803Z,6.60
2018-12-21T05:38:11.121Z,6.60
2018-12-21T05:40:39.459Z,6.60
2018-12-21T05:43:07.816Z,6.60
2018-12-21T05:45:36.197Z,6.60
2018-12-21T05:48:04.551Z,6.60
2018-12-21T05:50:32.923Z,6.60
2018-12-21T05:53:01.317Z,6.60
2018-12-21T05:55:29.679Z,6.60
2018-12-21T05:57:58.058Z,6.70
2018-12-21T06:00:26.474Z,6.70
2018-12-21T06:02:54.832Z,6.70
2018-12-21T06:05:23.177Z,6.70
2018-12-21T06:07:51.542Z,6.70
2018-12-21T06:10:19.884Z,6.70
2018-12-21T06:12:48.220Z,6.70
2018-12-21T06:15:16.574Z,6.70
2018-12-21T06:17:45.019Z,6.70
2018-12-21T06:20:14.492Z,6.70
2018-12-21T06:22:42.970Z,6.70
2018-12-21T06:25:11.342Z,6.80
2018-12-21T06:27:39.712Z,6.70
2018-12-21T06:30:08.455Z,6.70
2018-12-21T06:32:36.826Z,6.70
2018-12-21T06:35:05.320Z,6.80
2018-12-21T06:37:33.741Z,6.80
2018-12-21T06:40:02.063Z,6.80
2018-12-21T06:42:30.602Z,6.80
2018-12-21T06:44:58.972Z,6.80
2018-12-21T06:47:27.351Z,6.80
2018-12-21T06:49:55.702Z,6.80
2018-12-21T06:52:24.047Z,6.80
2018-12-21T06:54:52.401Z,6.80
2018-12-21T06:57:20.743Z,6.80
2018-12-21T06:59:49.082Z,6.80
2018-12-21T07:02:17.515Z,6.80
2018-12-21T07:04:45.930Z,6.80
2018-12-21T07:07:14.275Z,6.80
2018-12-21T07:09:42.688Z,6.80
2018-12-21T07:12:11.007Z,6.80
2018-12-21T07:14:39.509Z,6.80
2018-12-21T07:17:08.147Z,6.80
2018-12-21T07:19:36.509Z,6.80
2018-12-21T07:22:04.933Z,6.80
2018-12-21T07:24:33.670Z,6.80
2018-12-21T07:27:03.429Z,6.90
2018-12-21T07:29:31.986Z,6.80
2018-12-21T07:32:01.299Z,6.90
2018-12-21T07:34:29.630Z,6.90
2018-12-21T07:36:57.971Z,6.90
2018-12-21T07:39:26.314Z,6.90
2018-12-21T07:41:54.727Z,6.90
2018-12-21T07:44:23.055Z,6.90
2018-12-21T07:46:51.420Z,6.90
2018-12-21T07:49:19.769Z,6.90
2018-12-21T07:51:48.073Z,6.90
2018-12-21T07:54:16.451Z,6.90
2018-12-21T07:56:44.799Z,6.90
2018-12-21T07:59:13.142Z,6.90
2018-12-21T08:01:41.472Z,6.90
2018-12-21T08:04:09.860Z,6.90
2018-12-21T08:06:38.176Z,6.90
2018-12-21T08:09:07.630Z,6.90
2018-12-21T08:11:35.964Z,6.90
2018-12-21T08:14:04.436Z,6.90
2018-12-21T08:16:32.745Z,6.90
2018-12-21T08:19:01.111Z,6.80
2018-12-21T08:21:29.459Z,6.80
2018-12-21T08:23:57.885Z,6.80
2018-12-21T08:26:26.221Z,6.80
2018-12-21T08:28:54.592Z,6.80
2018-12-21T08:31:22.903Z,6.80
2018-12-21T08:33:51.254Z,6.80
2018-12-21T08:36:19.557Z,6.90
2018-12-21T08:38:47.922Z,6.90
2018-12-21T08:41:16.357Z,6.90
2018-12-21T08:43:44.715Z,6.90
2018-12-21T08:46:13.161Z,6.90
2018-12-21T08:48:41.784Z,6.90
2018-12-21T08:51:10.316Z,6.90
2018-12-21T08:53:38.659Z,6.90
2018-12-21T08:56:07.066Z,6.90
2018-12-21T08:58:36.847Z,6.90
2018-12-21T09:01:05.351Z,6.90
2018-12-21T09:03:33.729Z,6.90
2018-12-21T09:06:02.127Z,6.90
2018-12-21T09:08:30.468Z,6.90
2018-12-21T09:10:58.935Z,6.90
2018-12-21T09:13:27.308Z,6.90
2018-12-21T09:15:55.661Z,6.90
2018-12-21T09:18:24.009Z,6.90
2018-12-21T09:20:52.342Z,6.90
2018-12-21T09:23:20.679Z,6.90
2018-12-21T09:25:49.023Z,7.00
2018-12-21T09:28:17.361Z,7.00
2018-12-21T09:30:45.848Z,7.00
2018-12-21T09:33:14.204Z,7.10
2018-12-21T09:35:42.655Z,7.10
2018-12-21T09:38:11.053Z,7.10
2018-12-21T09:40:39.614Z,7.20
2018-12-21T09:43:07.999Z,7.20
2018-12-21T09:45:36.352Z,7.20
2018-12-21T09:48:04.716Z,7.30
2018-12-21T09:50:33.127Z,7.30
2018-12-21T09:53:01.479Z,7.30
2018-12-21T09:55:29.807Z,7.30
2018-12-21T09:57:58.140Z,7.30
2018-12-21T10:00:26.509Z,7.30
2018-12-21T10:02:54.828Z,7.40
2018-12-21T10:05:23.157Z,7.40
2018-12-21T10:07:51.522Z,7.30
2018-12-21T10:10:19.883Z,7.30
2018-12-21T10:12:48.254Z,7.30
2018-12-21T10:15:16.645Z,7.30
2018-12-21T10:17:45.008Z,7.30
2018-12-21T10:20:13.416Z,7.30
2018-12-21T10:22:41.771Z,7.30
2018-12-21T10:25:10.215Z,7.30
2018-12-21T10:27:38.559Z,7.30
2018-12-21T10:30:09.372Z,7.30
2018-12-21T10:32:37.846Z,7.30
2018-12-21T10:35:06.332Z,7.30
2018-12-21T10:37:34.693Z,7.20
2018-12-21T10:40:03.195Z,7.20
2018-12-21T10:42:31.620Z,7.20
2018-12-21T10:44:59.991Z,7.20
2018-12-21T10:47:29.081Z,7.20
2018-12-21T10:49:57.467Z,7.20
2018-12-21T10:52:25.901Z,7.20
2018-12-21T10:54:54.242Z,7.20
2018-12-21T10:57:22.597Z,7.20
2018-12-21T10:59:50.952Z,7.20
2018-12-21T11:02:19.315Z,7.20
2018-12-21T11:04:48.795Z,7.20
2018-12-21T11:07:17.275Z,7.20
2018-12-21T11:09:45.646Z,7.20
2018-12-21T11:12:13.986Z,7.20
2018-12-21T11:14:42.362Z,7.20
2018-12-21T11:17:10.687Z,7.20
2018-12-21T11:19:39.057Z,7.20
2018-12-21T11:22:07.424Z,7.20
2018-12-21T11:24:35.935Z,7.10
2018-12-21T11:27:04.462Z,7.10
2018-12-21T11:29:32.815Z,7.10
2018-12-21T11:32:01.200Z,7.10
2018-12-21T11:34:29.910Z,7.10
2018-12-21T11:36:58.331Z,7.10
2018-12-21T11:39:26.694Z,7.10
2018-12-21T11:41:55.031Z,7.10
2018-12-21T11:44:23.555Z,7.20
2018-12-21T11:46:51.944Z,7.20
2018-12-21T11:49:20.360Z,7.20
2018-12-21T11:51:48.730Z,7.20
2018-12-21T11:54:17.718Z,7.20
2018-12-21T11:56:46.083Z,7.20
2018-12-21T11:59:14.427Z,7.20
2018-12-21T12:01:42.779Z,7.20
2018-12-21T12:04:11.171Z,7.20
2018-12-21T12:06:39.628Z,7.20
2018-12-21T12:09:08.456Z,7.20
2018-12-21T12:11:36.832Z,7.30
2018-12-21T12:14:05.287Z,7.30
2018-12-21T12:16:33.603Z,7.30
2018-12-21T12:19:01.950Z,7.30
2018-12-21T12:21:30.438Z,7.30
2018-12-21T12:23:58.924Z,7.30
2018-12-21T12:26:27.259Z,7.30
2018-12-21T12:28:55.605Z,7.30
2018-12-21T12:31:24.035Z,7.30
2018-12-21T12:33:52.459Z,7.30
2018-12-21T12:36:20.856Z,7.30
2018-12-21T12:38:49.234Z,7.30
2018-12-21T12:41:17.619Z,7.30
2018-12-21T12:43:46.072Z,7.40
2018-12-21T12:46:14.448Z,7.40
2018-12-21T12:48:42.864Z,7.40
2018-12-21T12:51:11.203Z,7.40
2018-12-21T12:53:39.558Z,7.40
2018-12-21T12:56:08.003Z,7.40
2018-12-21T12:58:36.359Z,7.40
2018-12-21T13:01:04.791Z,7.40
2018-12-21T13:03:33.168Z,7.40
2018-12-21T13:06:01.537Z,7.40
2018-12-21T13:08:29.867Z,7.40
2018-12-21T13:10:58.231Z,7.40
2018-12-21T13:13:26.551Z,7.40
2018-12-21T13:15:54.919Z,7.40
2018-12-21T13:18:23.283Z,7.40
2018-12-21T13:20:51.631Z,7.50
2018-12-21T13:23:19.994Z,7.50
2018-12-21T13:25:48.367Z,7.50
2018-12-21T13:28:16.713Z,7.50
2018-12-21T13:30:45.160Z,7.50
2018-12-21T13:33:13.640Z,7.50
2018-12-21T13:35:42.019Z,7.50
2018-12-21T13:38:10.382Z,7.50
2018-12-21T13:40:38.755Z,7.50
2018-12-21T13:43:07.151Z,7.50
2018-12-21T13:45:35.515Z,7.50
2018-12-21T13:48:03.955Z,7.50
2018-12-21T13:50:32.419Z,7.50
2018-12-21T13:53:00.812Z,7.50
2018-12-21T13:55:29.154Z,7.50
2018-12-21T13:57:57.640Z,7.50
2018-12-21T14:00:26.016Z,7.50
2018-12-21T14:02:54.371Z,7.50
2018-12-21T14:05:22.755Z,7.50
2018-12-21T14:07:51.109Z,7.50
2018-12-21T14:10:19.531Z,7.50
2018-12-21T14:12:47.906Z,7.50
2018-12-21T14:15:16.261Z,7.50
2018-12-21T14:17:44.602Z,7.50
2018-12-21T14:20:13.111Z,7.50
2018-12-21T14:22:41.443Z,7.50
2018-12-21T14:25:09.946Z,7.50
2018-12-21T14:27:38.371Z,7.50
2018-12-21T14:30:08.241Z,7.50
2018-12-21T14:32:37.110Z,7.50
2018-12-21T14:35:06.680Z,7.50
2018-12-21T14:37:35.114Z,7.50
2018-12-21T14:40:03.875Z,7.50
2018-12-21T14:42:32.342Z,7.50
2018-12-21T14:45:00.658Z,7.50
2018-12-21T14:47:29.031Z,7.50
2018-12-21T14:49:57.507Z,7.50
2018-12-21T14:53:29.871Z,7.50
2018-12-21T14:55:59.689Z,7.60
2018-12-21T14:58:28.553Z,7.60
2018-12-21T15:00:56.964Z,7.60
2018-12-21T15:03:25.347Z,7.60
2018-12-21T15:05:53.695Z,7.60
2018-12-21T15:08:22.088Z,7.60
2018-12-21T15:10:50.522Z,7.60
2018-12-21T15:13:18.899Z,7.60
2018-12-21T15:15:47.251Z,7.60
2018-12-21T15:18:15.627Z,7.60
2018-12-21T15:20:44.036Z,7.60
2018-12-21T15:23:12.414Z,7.60
2018-12-21T15:25:46.043Z,7.60
2018-12-21T15:28:11.232Z,7.70
2018-12-21T15:30:39.663Z,7.70
2018-12-21T15:33:08.011Z,7.70
2018-12-21T15:35:36.359Z,7.70
2018-12-21T15:38:04.816Z,7.70
2018-12-21T15:40:33.192Z,7.70
2018-12-21T15:43:01.512Z,7.70
2018-12-21T15:45:29.951Z,7.80
2018-12-21T15:47:58.298Z,7.80
2018-12-21T15:50:26.722Z,7.90
2018-12-21T15:52:55.047Z,7.90
2018-12-21T15:55:23.527Z,7.90
2018-12-21T15:57:51.870Z,7.90
2018-12-21T16:00:20.383Z,7.90
2018-12-21T16:02:51.799Z,7.90
2018-12-21T16:05:20.470Z,8.00
2018-12-21T16:07:48.790Z,8.00
2018-12-21T16:10:17.126Z,8.00
2018-12-21T16:12:45.503Z,8.00
2018-12-21T16:15:13.839Z,8.10
2018-12-21T16:17:42.217Z,8.10
2018-12-21T16:20:13.314Z,8.10
2018-12-21T16:22:42.488Z,8.20
2018-12-21T16:25:11.343Z,8.20
2018-12-21T16:27:40.025Z,8.30
2018-12-21T16:30:11.232Z,8.40
2018-12-21T16:32:39.667Z,8.40
2018-12-21T16:35:08.318Z,8.50
2018-12-21T16:37:36.693Z,8.50
2018-12-21T16:40:06.387Z,8.60
2018-12-21T16:42:34.732Z,8.70
2018-12-21T16:45:03.193Z,8.70
2018-12-21T16:47:31.533Z,8.90
2018-12-21T16:49:59.982Z,8.90
2018-12-21T16:52:28.347Z,9.10
2018-12-21T16:54:56.686Z,9.20
2018-12-21T16:57:25.067Z,9.40
2018-12-21T16:59:53.443Z,9.50
2018-12-21T17:02:21.776Z,9.70
2018-12-21T17:04:50.279Z,9.70
2018-12-21T17:07:18.731Z,9.80
2018-12-21T17:09:47.107Z,9.80
2018-12-21T17:12:15.458Z,9.90
2018-12-21T17:14:43.808Z,10.00
2018-12-21T17:17:12.181Z,10.00
2018-12-21T17:19:40.536Z,10.10
2018-12-21T17:22:08.903Z,10.10
2018-12-21T17:24:37.258Z,10.10
2018-12-21T17:27:05.595Z,10.20
2018-12-21T17:29:33.959Z,10.20
2018-12-21T17:32:02.274Z,10.30
2018-12-21T17:34:31.535Z,10.30
2018-12-21T17:36:59.870Z,10.40
2018-12-21T17:39:28.209Z,10.40
2018-12-21T17:41:56.702Z,10.40
2018-12-21T17:44:25.071Z,10.40
2018-12-21T17:46:53.413Z,10.50
2018-12-21T17:49:21.819Z,10.50
2018-12-21T17:51:50.144Z,10.50
2018-12-21T17:54:18.489Z,10.50
2018-12-21T17:56:46.859Z,10.50
2018-12-21T17:59:15.191Z,10.60
2018-12-21T18:01:43.573Z,10.60
2018-12-21T18:04:18.607Z,10.60
2018-12-21T18:06:46.943Z,10.60
2018-12-21T18:09:15.590Z,10.50
2018-12-21T18:11:43.924Z,10.50
2018-12-21T18:14:12.414Z,10.50
2018-12-21T18:16:40.767Z,10.50
2018-12-21T18:19:09.107Z,10.50
2018-12-21T18:21:44.547Z,10.40
2018-12-21T18:24:12.960Z,10.50
2018-12-21T18:26:42.178Z,10.40
2018-12-21T18:29:10.523Z,10.40
2018-12-21T18:31:45.011Z,10.40
2018-12-21T18:34:17.442Z,10.40
2018-12-21T18:36:45.880Z,10.30
2018-12-21T18:39:14.254Z,10.30
2018-12-21T18:41:42.660Z,10.30
2018-12-21T18:44:11.112Z,10.20
2018-12-21T18:46:39.503Z,10.20
2018-12-21T18:49:07.846Z,10.20
2018-12-21T18:51:36.287Z,10.20
2018-12-21T18:54:04.650Z,10.10
2018-12-21T18:56:35.515Z,10.10
2018-12-21T18:59:04.039Z,10.10
2018-12-21T19:01:32.374Z,10.00
2018-12-21T19:04:02.813Z,10.00
2018-12-21T19:06:32.119Z,10.00
2018-12-21T19:09:01.564Z,10.00
2018-12-21T19:11:30.866Z,10.00
2018-12-21T19:14:00.071Z,9.90
2018-12-21T19:16:28.980Z,9.90
2018-12-21T19:18:58.457Z,9.80
2018-12-21T19:21:27.716Z,9.80
2018-12-21T19:23:56.826Z,9.80
2018-12-21T19:26:25.204Z,9.80
2018-12-21T19:28:53.512Z,9.80
2018-12-21T19:31:21.886Z,9.80
2018-12-21T19:33:50.227Z,9.70
2018-12-21T19:36:18.590Z,9.70
2018-12-21T19:38:46.983Z,9.70
2018-12-21T19:41:15.312Z,9.70
2018-12-21T19:43:43.638Z,9.60
2018-12-21T19:46:11.988Z,9.70
2018-12-21T19:48:40.461Z,9.60
2018-12-21T19:51:08.862Z,9.60
2018-12-21T19:53:37.284Z,9.60
2018-12-21T19:56:21.134Z,9.60
2018-12-21T19:58:49.505Z,9.60
2018-12-21T20:01:17.930Z,9.60
2018-12-21T20:03:46.283Z,9.60
2018-12-21T20:06:14.674Z,9.60
2018-12-21T20:08:43.102Z,9.50
2018-12-21T20:11:11.475Z,9.50
2018-12-21T20:13:39.887Z,9.40
2018-12-21T20:16:08.218Z,9.40
2018-12-21T20:18:36.664Z,9.40
2018-12-21T20:21:05.084Z,9.40
2018-12-21T20:23:33.438Z,9.30
2018-12-21T20:26:01.858Z,9.30
2018-12-21T20:28:30.190Z,9.30
2018-12-21T20:30:58.544Z,9.30
2018-12-21T20:33:27.323Z,9.30
2018-12-21T20:35:55.709Z,9.20
2018-12-21T20:38:24.103Z,9.20
2018-12-21T20:40:52.712Z,9.10
2018-12-21T20:43:21.058Z,9.10
2018-12-21T20:45:49.376Z,9.00
2018-12-21T20:48:17.729Z,8.90
2018-12-21T20:50:46.153Z,8.90
2018-12-21T20:53:14.634Z,8.90
2018-12-21T20:55:43.156Z,8.80
2018-12-21T20:58:20.470Z,8.70
2018-12-21T21:00:48.803Z,8.70
2018-12-21T21:03:17.155Z,8.70
2018-12-21T21:05:45.479Z,8.60
2018-12-21T21:08:13.852Z,8.60
2018-12-21T21:10:42.183Z,8.60
2018-12-21T21:13:19.067Z,8.50
2018-12-21T21:15:40.895Z,8.50
2018-12-21T21:18:09.263Z,8.50
2018-12-21T21:20:37.587Z,8.50
2018-12-21T21:23:05.999Z,8.50
2018-12-21T21:25:34.376Z,8.40
2018-12-21T21:28:02.706Z,8.40
2018-12-21T21:30:34.007Z,8.40
2018-12-21T21:33:02.347Z,8.40
2018-12-21T21:35:31.719Z,8.40
2018-12-21T21:38:02.407Z,8.30
2018-12-21T21:40:32.701Z,8.30
2018-12-21T21:43:02.030Z,8.30
2018-12-21T21:45:33.241Z,8.30
2018-12-21T21:48:05.047Z,8.30
2018-12-21T21:50:34.022Z,8.30
2018-12-21T21:53:02.435Z,8.20
2018-12-21T21:55:30.776Z,8.20
2018-12-21T21:57:59.127Z,8.20
2018-12-21T22:00:27.675Z,8.20
2018-12-21T22:02:56.027Z,8.20
2018-12-21T22:05:24.368Z,8.20
2018-12-21T22:07:52.708Z,8.10
2018-12-21T22:10:21.059Z,8.10
2018-12-21T22:12:49.395Z,8.10
2018-12-21T22:15:17.727Z,8.10
2018-12-21T22:17:46.055Z,8.10
2018-12-21T22:20:14.411Z,8.10
2018-12-21T22:22:42.727Z,8.10
2018-12-21T22:25:11.088Z,8.10
2018-12-21T22:27:47.762Z,8.10
2018-12-21T22:30:11.270Z,8.10
2018-12-21T22:32:39.587Z,8.00
2018-12-21T22:35:08.470Z,8.00
2018-12-21T22:37:36.774Z,8.00
2018-12-21T22:40:05.843Z,8.00
2018-12-21T22:42:34.234Z,8.00
2018-12-21T22:45:02.574Z,8.00
2018-12-21T22:47:30.920Z,8.00
2018-12-21T22:49:59.274Z,8.00
2018-12-21T22:52:27.610Z,8.00
2018-12-21T22:54:55.968Z,8.00
2018-12-21T22:57:24.291Z,8.00
2018-12-21T22:59:52.633Z,8.00
2018-12-21T23:02:20.994Z,8.00
2018-12-21T23:04:49.343Z,8.00
2018-12-21T23:07:17.684Z,8.00
2018-12-21T23:09:45.995Z,8.00
2018-12-21T23:12:14.351Z,8.00
2018-12-21T23:14:42.683Z,8.00
2018-12-21T23:17:11.002Z,8.00
2018-12-21T23:19:39.374Z,7.90
2018-12-21T23:22:07.703Z,7.90
2018-12-21T23:24:36.014Z,7.80
2018-12-21T23:27:04.359Z,7.80
2018-12-21T23:29:32.670Z,7.70
2018-12-21T23:32:01.039Z,7.70
2018-12-21T23:34:29.376Z,7.60
2018-12-21T23:36:57.703Z,7.60
2018-12-21T23:39:26.034Z,7.60
2018-12-21T23:41:54.391Z,7.60
2018-12-21T23:44:22.723Z,7.60
2018-12-21T23:46:51.060Z,7.50
2018-12-21T23:49:19.421Z,7.60
2018-12-21T23:51:47.750Z,7.60
2018-12-21T23:54:16.114Z,7.50
2018-12-21T23:56:44.470Z,7.50
2018-12-21T23:59:12.794Z,7.50
